Aeroporto :







RITROVATECI SU...

 
LOGIN :

Iscrizione | Disclaimer

   EN    FR    IT 

 









Sommario :    VFR   VFR Marginale   IFR   IFR Intensivo   IFR Molto Intensivo
Visibilità : 
Base nubi : 
>= 8 km
>= 3000ft
5 / 8 km
1000 / 3000 ft
1500m / 5 km
500 / 1000 ft
800 / 1500m
200 / 500 ft
< 800m
< 200 ft
Simboli :   Temporali  Nebbia  Neve Forte  Precipitazioni Forti  Vento > 20 kt






- Altitudine del aeroporto : 62 ft
- Codice IATA : ANU


TAPA - V C Bird Int.

ULTIMO METAR :
  • 181100Z 25003KT 9999 FEW018 26/24 Q1010 NOSIG

METARs OBSOLETI :
  • 181000Z 26003KT 9999 SCT018 25/23 Q1010 NOSIG
  • 180900Z VRB03KT 9999 FEW020 26/23 Q1009 NOSIG
  • 180800Z VRB02KT 9999 FEW020 26/23 Q1009 NOSIG

TAF TAF TAPA
Valido dal 18 a 06 ore il 19 a 06 ore UTC


180500Z 1806/1906 VRB03KT 9999 FEW020
PROB40
TEMPO 1814/1822 SHRA FEW015CB BKN018
FIR TTZP / America del Nord



MetMap, La meteo Aeronautica in un colpo d'occhio ! - Copyright ORBIFLY Dicembre 2007 - Disclaimer

ORBIFLY MET'MAP TEAM :

Programmazione e sviluppo : Alexandra Zaïnal
Concezione : Baudouin d'Aumeries
Aiuto per la programmazione : Marc-Olivier Méhu
Supporto tecnico e logistico : Manuel Goepfert
Aiuto per la traduzione : Arnaldo La Scala

Contatto : metmap@orbifly.com




FONTI E CREDITI :

   NOAA